sensor_id;sensor_type;location;lat;lon;timestamp;pressure;altitude;pressure_sealevel;temperature;humidity
6433;BME280;3249;42.690;23.260;2023-03-20T00:02:10;94566.25;;;3.31;100.00
6433;BME280;3249;42.690;23.260;2023-03-20T00:04:45;94563.28;;;3.19;100.00
6433;BME280;3249;42.690;23.260;2023-03-20T00:07:14;94559.22;;;3.02;100.00
6433;BME280;3249;42.690;23.260;2023-03-20T00:09:43;94560.88;;;3.26;100.00
6433;BME280;3249;42.690;23.260;2023-03-20T00:12:14;94558.28;;;3.34;100.00
6433;BME280;3249;42.690;23.260;2023-03-20T00:14:47;94538.78;;;3.26;100.00
6433;BME280;3249;42.690;23.260;2023-03-20T00:17:18;94552.34;;;3.41;100.00
6433;BME280;3249;42.690;23.260;2023-03-20T00:19:48;94549.66;;;3.43;100.00
6433;BME280;3249;42.690;23.260;2023-03-20T00:22:17;94553.25;;;3.18;100.00
6433;BME280;3249;42.690;23.260;2023-03-20T00:24:47;94555.75;;;2.87;100.00
6433;BME280;3249;42.690;23.260;2023-03-20T00:27:16;94529.22;;;2.90;100.00
6433;BME280;3249;42.690;23.260;2023-03-20T00:29:48;94554.59;;;2.98;100.00
6433;BME280;3249;42.690;23.260;2023-03-20T00:32:17;94546.63;;;3.09;100.00
6433;BME280;3249;42.690;23.260;2023-03-20T00:34:47;94550.53;;;2.81;100.00
6433;BME280;3249;42.690;23.260;2023-03-20T00:37:16;94541.03;;;2.59;100.00
6433;BME280;3249;42.690;23.260;2023-03-20T00:39:45;94541.66;;;2.69;100.00
6433;BME280;3249;42.690;23.260;2023-03-20T00:42:19;94543.88;;;2.64;100.00
6433;BME280;3249;42.690;23.260;2023-03-20T00:44:53;94541.34;;;2.48;100.00
6433;BME280;3249;42.690;23.260;2023-03-20T00:47:25;94536.94;;;2.34;100.00
6433;BME280;3249;42.690;23.260;2023-03-20T00:49:55;94535.31;;;2.57;100.00
6433;BME280;3249;42.690;23.260;2023-03-20T00:52:24;94538.50;;;2.51;100.00
6433;BME280;3249;42.690;23.260;2023-03-20T00:54:53;94543.72;;;2.57;100.00
6433;BME280;3249;42.690;23.260;2023-03-20T00:57:25;94538.00;;;2.63;100.00
6433;BME280;3249;42.690;23.260;2023-03-20T01:00:00;94536.72;;;2.67;100.00
6433;BME280;3249;42.690;23.260;2023-03-20T01:02:30;94533.09;;;2.62;100.00
6433;BME280;3249;42.690;23.260;2023-03-20T01:04:59;94523.72;;;2.54;100.00
6433;BME280;3249;42.690;23.260;2023-03-20T01:07:30;94532.44;;;2.60;100.00
6433;BME280;3249;42.690;23.260;2023-03-20T01:10:01;94528.97;;;2.53;100.00
6433;BME280;3249;42.690;23.260;2023-03-20T01:12:31;94511.84;;;2.31;100.00
6433;BME280;3249;42.690;23.260;2023-03-20T01:15:05;94523.28;;;2.11;100.00
6433;BME280;3249;42.690;23.260;2023-03-20T01:17:42;94518.22;;;2.19;100.00
6433;BME280;3249;42.690;23.260;2023-03-20T01:20:15;94510.72;;;2.33;100.00
6433;BME280;3249;42.690;23.260;2023-03-20T01:22:44;94515.78;;;2.49;100.00
6433;BME280;3249;42.690;23.260;2023-03-20T01:25:14;94505.47;;;2.51;100.00
6433;BME280;3249;42.690;23.260;2023-03-20T01:27:46;94507.88;;;2.28;100.00
6433;BME280;3249;42.690;23.260;2023-03-20T01:30:21;94513.78;;;2.21;100.00
6433;BME280;3249;42.690;23.260;2023-03-20T01:32:52;94511.88;;;2.15;100.00
6433;BME280;3249;42.690;23.260;2023-03-20T01:35:23;94516.63;;;2.34;100.00
6433;BME280;3249;42.690;23.260;2023-03-20T01:37:56;94517.88;;;2.38;100.00
6433;BME280;3249;42.690;23.260;2023-03-20T01:40:30;94520.72;;;2.43;100.00
6433;BME280;3249;42.690;23.260;2023-03-20T01:43:02;94521.22;;;2.22;100.00
6433;BME280;3249;42.690;23.260;2023-03-20T01:45:35;94520.41;;;2.38;100.00
6433;BME280;3249;42.690;23.260;2023-03-20T01:48:14;94525.63;;;2.52;100.00
6433;BME280;3249;42.690;23.260;2023-03-20T01:50:44;94523.41;;;2.41;100.00
6433;BME280;3249;42.690;23.260;2023-03-20T01:53:17;94517.88;;;2.38;100.00
6433;BME280;3249;42.690;23.260;2023-03-20T01:55:55;94526.13;;;2.16;100.00
6433;BME280;3249;42.690;23.260;2023-03-20T01:58:37;94525.81;;;2.19;100.00
6433;BME280;3249;42.690;23.260;2023-03-20T02:01:12;94520.44;;;2.06;100.00
6433;BME280;3249;42.690;23.260;2023-03-20T02:03:47;94522.31;;;1.80;100.00
6433;BME280;3249;42.690;23.260;2023-03-20T02:06:44;94518.97;;;1.63;100.00
6433;BME280;3249;42.690;23.260;2023-03-20T02:09:37;94510.56;;;1.63;100.00
6433;BME280;3249;42.690;23.260;2023-03-20T02:12:11;94513.91;;;1.71;100.00
6433;BME280;3249;42.690;23.260;2023-03-20T02:14:40;94507.88;;;1.56;100.00
6433;BME280;3249;42.690;23.260;2023-03-20T02:17:25;94508.63;;;1.57;100.00
6433;BME280;3249;42.690;23.260;2023-03-20T02:20:06;94513.22;;;1.45;100.00
6433;BME280;3249;42.690;23.260;2023-03-20T02:22:59;94489.59;;;1.37;100.00
6433;BME280;3249;42.690;23.260;2023-03-20T02:26:01;94515.00;;;1.69;100.00
6433;BME280;3249;42.690;23.260;2023-03-20T02:38:00;94477.91;;;1.68;100.00
6433;BME280;3249;42.690;23.260;2023-03-20T02:40:35;94515.81;;;1.93;100.00
6433;BME280;3249;42.690;23.260;2023-03-20T02:43:11;94510.91;;;1.76;100.00
6433;BME280;3249;42.690;23.260;2023-03-20T02:45:52;94483.28;;;1.65;100.00
6433;BME280;3249;42.690;23.260;2023-03-20T02:48:37;94509.31;;;1.75;100.00
6433;BME280;3249;42.690;23.260;2023-03-20T02:51:13;94505.81;;;1.84;100.00
6433;BME280;3249;42.690;23.260;2023-03-20T02:53:51;94515.50;;;1.88;100.00
6433;BME280;3249;42.690;23.260;2023-03-20T02:56:28;94509.00;;;1.78;100.00
6433;BME280;3249;42.690;23.260;2023-03-20T02:59:03;94503.56;;;1.49;100.00
6433;BME280;3249;42.690;23.260;2023-03-20T03:01:40;94507.34;;;1.45;100.00
6433;BME280;3249;42.690;23.260;2023-03-20T03:04:15;94472.56;;;1.05;100.00
6433;BME280;3249;42.690;23.260;2023-03-20T03:06:47;94504.88;;;1.11;100.00
6433;BME280;3249;42.690;23.260;2023-03-20T03:09:26;94499.22;;;1.25;100.00
6433;BME280;3249;42.690;23.260;2023-03-20T03:12:01;94491.19;;;1.38;100.00
6433;BME280;3249;42.690;23.260;2023-03-20T03:14:36;94499.94;;;1.51;100.00
6433;BME280;3249;42.690;23.260;2023-03-20T03:17:12;94478.66;;;1.36;100.00
6433;BME280;3249;42.690;23.260;2023-03-20T03:19:44;94498.84;;;1.70;100.00
6433;BME280;3249;42.690;23.260;2023-03-20T03:22:16;94472.19;;;1.50;100.00
6433;BME280;3249;42.690;23.260;2023-03-20T03:24:50;94493.28;;;1.66;100.00
6433;BME280;3249;42.690;23.260;2023-03-20T03:27:22;94495.81;;;1.82;100.00
6433;BME280;3249;42.690;23.260;2023-03-20T03:29:55;94504.25;;;1.91;100.00
6433;BME280;3249;42.690;23.260;2023-03-20T03:32:29;94508.06;;;1.95;100.00
6433;BME280;3249;42.690;23.260;2023-03-20T03:35:00;94503.28;;;1.92;100.00
6433;BME280;3249;42.690;23.260;2023-03-20T03:37:40;94502.19;;;2.02;100.00
6433;BME280;3249;42.690;23.260;2023-03-20T03:40:19;94502.69;;;1.98;100.00
6433;BME280;3249;42.690;23.260;2023-03-20T03:42:56;94502.81;;;1.96;100.00
6433;BME280;3249;42.690;23.260;2023-03-20T03:45:31;94503.59;;;1.81;100.00
6433;BME280;3249;42.690;23.260;2023-03-20T03:48:06;94495.66;;;1.60;100.00
6433;BME280;3249;42.690;23.260;2023-03-20T03:50:39;94472.16;;;1.26;100.00
6433;BME280;3249;42.690;23.260;2023-03-20T03:53:16;94494.06;;;1.59;100.00
6433;BME280;3249;42.690;23.260;2023-03-20T03:55:52;94488.53;;;1.55;100.00
6433;BME280;3249;42.690;23.260;2023-03-20T03:58:27;94488.97;;;1.43;100.00
6433;BME280;3249;42.690;23.260;2023-03-20T04:00:57;94487.06;;;1.53;100.00
6433;BME280;3249;42.690;23.260;2023-03-20T04:03:30;94488.19;;;1.58;100.00
6433;BME280;3249;42.690;23.260;2023-03-20T04:06:03;94489.81;;;1.67;100.00
6433;BME280;3249;42.690;23.260;2023-03-20T04:08:32;94488.53;;;1.55;100.00
6433;BME280;3249;42.690;23.260;2023-03-20T04:11:04;94485.66;;;1.66;100.00
6433;BME280;3249;42.690;23.260;2023-03-20T04:13:35;94480.75;;;1.73;100.00
6433;BME280;3249;42.690;23.260;2023-03-20T04:16:05;94484.09;;;1.65;100.00
6433;BME280;3249;42.690;23.260;2023-03-20T04:18:34;94474.22;;;1.46;100.00
6433;BME280;3249;42.690;23.260;2023-03-20T04:21:03;94467.13;;;1.42;100.00
6433;BME280;3249;42.690;23.260;2023-03-20T04:23:32;94469.97;;;1.47;100.00
6433;BME280;3249;42.690;23.260;2023-03-20T04:26:05;94473.16;;;1.65;100.00
6433;BME280;3249;42.690;23.260;2023-03-20T04:28:35;94479.94;;;1.40;100.00
6433;BME280;3249;42.690;23.260;2023-03-20T04:31:23;94478.03;;;1.50;100.00
6433;BME280;3249;42.690;23.260;2023-03-20T04:34:02;94481.72;;;1.64;100.00
6433;BME280;3249;42.690;23.260;2023-03-20T04:36:42;94477.28;;;1.74;100.00
6433;BME280;3249;42.690;23.260;2023-03-20T04:39:13;94481.72;;;1.80;100.00
6433;BME280;3249;42.690;23.260;2023-03-20T04:41:45;94497.59;;;1.90;100.00
6433;BME280;3249;42.690;23.260;2023-03-20T04:44:14;94505.84;;;2.00;100.00
6433;BME280;3249;42.690;23.260;2023-03-20T04:46:45;94504.91;;;2.01;100.00
6433;BME280;3249;42.690;23.260;2023-03-20T04:49:15;94513.78;;;2.05;100.00
6433;BME280;3249;42.690;23.260;2023-03-20T04:51:44;94521.72;;;1.94;100.00
6433;BME280;3249;42.690;23.260;2023-03-20T04:54:16;94522.16;;;1.73;100.00
6433;BME280;3249;42.690;23.260;2023-03-20T04:56:48;94520.75;;;1.95;100.00
6433;BME280;3249;42.690;23.260;2023-03-20T04:59:19;94519.47;;;2.15;100.00
6433;BME280;3249;42.690;23.260;2023-03-20T05:01:49;94520.44;;;1.98;100.00
6433;BME280;3249;42.690;23.260;2023-03-20T05:04:35;94514.72;;;1.88;100.00
6433;BME280;3249;42.690;23.260;2023-03-20T05:07:04;94519.78;;;1.88;100.00
6433;BME280;3249;42.690;23.260;2023-03-20T05:09:41;94516.94;;;1.99;100.00
6433;BME280;3249;42.690;23.260;2023-03-20T05:12:15;94513.13;;;2.19;100.00
6433;BME280;3249;42.690;23.260;2023-03-20T05:15:03;94525.97;;;2.25;100.00
6433;BME280;3249;42.690;23.260;2023-03-20T05:17:35;94529.16;;;2.35;100.00
6433;BME280;3249;42.690;23.260;2023-03-20T05:20:19;94535.91;;;2.75;100.00
6433;BME280;3249;42.690;23.260;2023-03-20T05:23:17;94533.63;;;2.96;100.00
6433;BME280;3249;42.690;23.260;2023-03-20T05:26:17;94539.91;;;3.16;100.00
6433;BME280;3249;42.690;23.260;2023-03-20T05:29:04;94524.03;;;3.14;100.00
6433;BME280;3249;42.690;23.260;2023-03-20T05:31:46;94523.94;;;2.99;100.00
6433;BME280;3249;42.690;23.260;2023-03-20T05:34:31;94532.94;;;3.10;100.00
6433;BME280;3249;42.690;23.260;2023-03-20T05:37:00;94540.16;;;3.37;100.00
6433;BME280;3249;42.690;23.260;2023-03-20T05:39:52;94522.47;;;3.43;100.00
6433;BME280;3249;42.690;23.260;2023-03-20T05:42:46;94547.13;;;3.43;100.00
6433;BME280;3249;42.690;23.260;2023-03-20T05:45:43;94543.19;;;3.63;100.00
6433;BME280;3249;42.690;23.260;2023-03-20T05:48:31;94541.56;;;3.70;100.00
6433;BME280;3249;42.690;23.260;2023-03-20T05:51:33;94534.75;;;3.93;100.00
6433;BME280;3249;42.690;23.260;2023-03-20T05:54:10;94546.72;;;4.07;100.00
6433;BME280;3249;42.690;23.260;2023-03-20T05:56:56;94544.00;;;4.31;100.00
6433;BME280;3249;42.690;23.260;2023-03-20T06:00:05;94537.44;;;4.36;100.00
6433;BME280;3249;42.690;23.260;2023-03-20T06:02:46;94546.72;;;4.52;100.00
6433;BME280;3249;42.690;23.260;2023-03-20T06:05:36;94544.69;;;4.62;100.00
6433;BME280;3249;42.690;23.260;2023-03-20T06:08:06;94547.09;;;4.92;100.00
6433;BME280;3249;42.690;23.260;2023-03-20T06:10:35;94552.66;;;4.96;100.00
6433;BME280;3249;42.690;23.260;2023-03-20T06:13:05;94543.59;;;5.08;100.00
6433;BME280;3249;42.690;23.260;2023-03-20T06:15:34;94551.69;;;5.41;100.00
6433;BME280;3249;42.690;23.260;2023-03-20T06:18:14;94552.50;;;5.62;100.00
6433;BME280;3249;42.690;23.260;2023-03-20T06:20:43;94548.03;;;5.64;100.00
6433;BME280;3249;42.690;23.260;2023-03-20T06:23:13;94552.13;;;5.94;100.00
6433;BME280;3249;42.690;23.260;2023-03-20T06:25:42;94544.59;;;5.86;100.00
6433;BME280;3249;42.690;23.260;2023-03-20T06:28:11;94526.56;;;5.59;100.00
6433;BME280;3249;42.690;23.260;2023-03-20T06:30:42;94565.38;;;6.04;100.00
6433;BME280;3249;42.690;23.260;2023-03-20T06:33:19;94557.78;;;6.11;100.00
6433;BME280;3249;42.690;23.260;2023-03-20T06:35:58;94560.75;;;5.93;100.00
6433;BME280;3249;42.690;23.260;2023-03-20T06:38:30;94572.28;;;6.25;100.00
6433;BME280;3249;42.690;23.260;2023-03-20T06:41:05;94566.94;;;5.84;100.00
6433;BME280;3249;42.690;23.260;2023-03-20T06:43:37;94564.13;;;6.15;100.00
6433;BME280;3249;42.690;23.260;2023-03-20T06:46:09;94566.06;;;6.55;100.00
6433;BME280;3249;42.690;23.260;2023-03-20T06:48:40;94565.59;;;6.72;100.00
6433;BME280;3249;42.690;23.260;2023-03-20T06:51:10;94555.84;;;6.82;100.00
6433;BME280;3249;42.690;23.260;2023-03-20T06:53:48;94564.91;;;7.12;100.00
6433;BME280;3249;42.690;23.260;2023-03-20T06:56:21;94560.63;;;7.19;100.00
6433;BME280;3249;42.690;23.260;2023-03-20T06:58:50;94544.84;;;7.16;100.00
6433;BME280;3249;42.690;23.260;2023-03-20T07:01:20;94566.63;;;7.39;100.00
6433;BME280;3249;42.690;23.260;2023-03-20T07:03:52;94552.34;;;6.90;100.00
6433;BME280;3249;42.690;23.260;2023-03-20T07:06:26;94563.34;;;7.45;100.00
6433;BME280;3249;42.690;23.260;2023-03-20T07:08:57;94557.94;;;7.74;97.86
6433;BME280;3249;42.690;23.260;2023-03-20T07:11:26;94554.28;;;8.09;97.01
6433;BME280;3249;42.690;23.260;2023-03-20T07:13:56;94556.78;;;7.83;98.11
6433;BME280;3249;42.690;23.260;2023-03-20T07:16:46;94558.28;;;8.31;95.09
6433;BME280;3249;42.690;23.260;2023-03-20T07:19:18;94556.53;;;8.51;93.68
6433;BME280;3249;42.690;23.260;2023-03-20T07:21:54;94553.59;;;8.61;90.54
6433;BME280;3249;42.690;23.260;2023-03-20T07:24:29;94560.31;;;8.75;88.13
6433;BME280;3249;42.690;23.260;2023-03-20T07:26:59;94565.47;;;8.68;88.37
6433;BME280;3249;42.690;23.260;2023-03-20T07:29:29;94541.16;;;8.90;84.52
6433;BME280;3249;42.690;23.260;2023-03-20T07:31:58;94569.38;;;9.16;84.36
6433;BME280;3249;42.690;23.260;2023-03-20T07:34:36;94564.66;;;8.74;86.75
6433;BME280;3249;42.690;23.260;2023-03-20T07:37:05;94560.28;;;8.62;88.40
6433;BME280;3249;42.690;23.260;2023-03-20T07:39:35;94568.41;;;8.72;88.31
6433;BME280;3249;42.690;23.260;2023-03-20T07:42:38;94550.81;;;9.01;85.32
6433;BME280;3249;42.690;23.260;2023-03-20T07:45:13;94565.00;;;9.23;82.69
6433;BME280;3249;42.690;23.260;2023-03-20T07:47:44;94573.63;;;9.55;81.34
6433;BME280;3249;42.690;23.260;2023-03-20T07:50:22;94569.34;;;9.29;80.70
6433;BME280;3249;42.690;23.260;2023-03-20T07:52:54;94569.31;;;9.42;79.82
6433;BME280;3249;42.690;23.260;2023-03-20T07:55:23;94563.56;;;9.47;79.05
6433;BME280;3249;42.690;23.260;2023-03-20T07:57:53;94562.06;;;9.77;78.02
6433;BME280;3249;42.690;23.260;2023-03-20T08:00:23;94564.78;;;9.95;75.87
6433;BME280;3249;42.690;23.260;2023-03-20T08:02:52;94567.63;;;10.25;74.23
6433;BME280;3249;42.690;23.260;2023-03-20T08:05:26;94566.44;;;9.77;77.52
6433;BME280;3249;42.690;23.260;2023-03-20T08:07:58;94564.75;;;10.02;75.95
6433;BME280;3249;42.690;23.260;2023-03-20T08:10:28;94565.59;;;10.33;76.74
6433;BME280;3249;42.690;23.260;2023-03-20T08:12:58;94541.41;;;10.41;72.38
6433;BME280;3249;42.690;23.260;2023-03-20T08:15:27;94546.00;;;10.32;70.73
6433;BME280;3249;42.690;23.260;2023-03-20T08:17:56;94555.56;;;10.19;72.97
6433;BME280;3249;42.690;23.260;2023-03-20T08:20:30;94560.59;;;10.07;71.39
6433;BME280;3249;42.690;23.260;2023-03-20T08:22:59;94557.97;;;10.14;70.82
6433;BME280;3249;42.690;23.260;2023-03-20T08:25:28;94554.44;;;10.08;72.13
6433;BME280;3249;42.690;23.260;2023-03-20T08:28:01;94554.34;;;10.28;70.99
6433;BME280;3249;42.690;23.260;2023-03-20T08:30:30;94555.72;;;10.61;68.30
6433;BME280;3249;42.690;23.260;2023-03-20T08:33:01;94567.84;;;10.79;67.94
6433;BME280;3249;42.690;23.260;2023-03-20T08:35:32;94577.16;;;11.04;66.73
6433;BME280;3249;42.690;23.260;2023-03-20T08:38:01;94576.31;;;11.10;66.77
6433;BME280;3249;42.690;23.260;2023-03-20T08:40:31;94551.34;;;11.11;64.09
6433;BME280;3249;42.690;23.260;2023-03-20T08:43:00;94575.44;;;11.41;60.91
6433;BME280;3249;42.690;23.260;2023-03-20T08:45:30;94576.16;;;11.48;60.20
6433;BME280;3249;42.690;23.260;2023-03-20T08:47:59;94579.41;;;11.61;60.52
6433;BME280;3249;42.690;23.260;2023-03-20T08:50:29;94565.88;;;11.66;59.69
6433;BME280;3249;42.690;23.260;2023-03-20T08:53:01;94562.47;;;11.47;60.60
6433;BME280;3249;42.690;23.260;2023-03-20T08:55:31;94566.75;;;11.17;62.96
6433;BME280;3249;42.690;23.260;2023-03-20T08:58:03;94573.72;;;11.53;59.49
6433;BME280;3249;42.690;23.260;2023-03-20T09:00:38;94571.59;;;11.68;59.67
6433;BME280;3249;42.690;23.260;2023-03-20T09:03:11;94574.53;;;11.71;58.63
6433;BME280;3249;42.690;23.260;2023-03-20T09:05:43;94560.09;;;11.46;58.38
6433;BME280;3249;42.690;23.260;2023-03-20T09:08:16;94564.41;;;11.52;60.25
6433;BME280;3249;42.690;23.260;2023-03-20T09:10:49;94566.16;;;11.76;58.01
6433;BME280;3249;42.690;23.260;2023-03-20T09:13:18;94557.38;;;12.13;55.27
6433;BME280;3249;42.690;23.260;2023-03-20T09:15:49;94562.63;;;12.36;53.52
6433;BME280;3249;42.690;23.260;2023-03-20T09:18:18;94544.94;;;12.51;54.02
6433;BME280;3249;42.690;23.260;2023-03-20T09:20:48;94554.03;;;12.53;52.43
6433;BME280;3249;42.690;23.260;2023-03-20T09:23:19;94529.38;;;12.28;53.39
6433;BME280;3249;42.690;23.260;2023-03-20T09:25:49;94537.13;;;12.28;52.95
6433;BME280;3249;42.690;23.260;2023-03-20T09:28:18;94541.03;;;12.60;51.93
6433;BME280;3249;42.690;23.260;2023-03-20T09:30:47;94533.31;;;12.83;50.42
6433;BME280;3249;42.690;23.260;2023-03-20T09:33:16;94541.34;;;13.04;50.48
6433;BME280;3249;42.690;23.260;2023-03-20T09:35:46;94537.94;;;12.92;51.33
6433;BME280;3249;42.690;23.260;2023-03-20T09:38:20;94528.03;;;12.78;51.21
6433;BME280;3249;42.690;23.260;2023-03-20T09:40:54;94528.38;;;12.70;51.55
6433;BME280;3249;42.690;23.260;2023-03-20T09:43:45;94531.84;;;12.87;51.21
6433;BME280;3249;42.690;23.260;2023-03-20T09:46:33;94525.38;;;13.19;50.40
6433;BME280;3249;42.690;23.260;2023-03-20T09:49:21;94510.66;;;13.31;48.51
6433;BME280;3249;42.690;23.260;2023-03-20T09:51:58;94499.50;;;13.42;47.23
6433;BME280;3249;42.690;23.260;2023-03-20T09:54:34;94509.06;;;13.53;46.64
6433;BME280;3249;42.690;23.260;2023-03-20T09:57:16;94496.00;;;13.48;46.01
6433;BME280;3249;42.690;23.260;2023-03-20T09:59:47;94494.00;;;13.50;46.18
6433;BME280;3249;42.690;23.260;2023-03-20T10:02:27;94487.44;;;13.59;47.12
6433;BME280;3249;42.690;23.260;2023-03-20T10:05:02;94487.81;;;13.79;45.85
6433;BME280;3249;42.690;23.260;2023-03-20T10:07:32;94484.66;;;13.88;44.26
6433;BME280;3249;42.690;23.260;2023-03-20T10:10:05;94475.94;;;13.94;43.89
6433;BME280;3249;42.690;23.260;2023-03-20T10:12:47;94471.28;;;14.08;43.00
6433;BME280;3249;42.690;23.260;2023-03-20T10:15:23;94469.16;;;14.05;42.74
6433;BME280;3249;42.690;23.260;2023-03-20T10:18:01;94458.91;;;14.10;42.91
6433;BME280;3249;42.690;23.260;2023-03-20T10:20:38;94473.47;;;14.28;42.96
6433;BME280;3249;42.690;23.260;2023-03-20T10:23:17;94452.03;;;14.32;43.01
6433;BME280;3249;42.690;23.260;2023-03-20T10:25:58;94470.59;;;14.57;43.03
6433;BME280;3249;42.690;23.260;2023-03-20T10:28:45;94464.94;;;14.77;42.05
6433;BME280;3249;42.690;23.260;2023-03-20T10:31:28;94460.59;;;14.82;40.85
6433;BME280;3249;42.690;23.260;2023-03-20T10:34:24;94459.75;;;14.93;41.17
6433;BME280;3249;42.690;23.260;2023-03-20T10:37:14;94460.03;;;15.13;41.00
6433;BME280;3249;42.690;23.260;2023-03-20T10:39:53;94440.59;;;15.16;40.36
6433;BME280;3249;42.690;23.260;2023-03-20T10:42:31;94450.31;;;15.42;40.97
6433;BME280;3249;42.690;23.260;2023-03-20T10:45:06;94438.44;;;15.46;39.59
6433;BME280;3249;42.690;23.260;2023-03-20T10:47:39;94447.16;;;15.83;38.43
6433;BME280;3249;42.690;23.260;2023-03-20T10:50:15;94444.97;;;15.96;37.93
6433;BME280;3249;42.690;23.260;2023-03-20T10:52:46;94440.88;;;16.05;37.79
6433;BME280;3249;42.690;23.260;2023-03-20T10:55:19;94431.78;;;16.03;37.34
6433;BME280;3249;42.690;23.260;2023-03-20T10:57:55;94436.41;;;16.01;36.95
6433;BME280;3249;42.690;23.260;2023-03-20T11:00:28;94435.84;;;16.20;37.72
6433;BME280;3249;42.690;23.260;2023-03-20T11:02:58;94434.53;;;16.44;36.74
6433;BME280;3249;42.690;23.260;2023-03-20T11:05:30;94430.47;;;16.58;37.26
6433;BME280;3249;42.690;23.260;2023-03-20T11:08:03;94433.06;;;16.58;35.88
6433;BME280;3249;42.690;23.260;2023-03-20T11:10:35;94416.50;;;16.38;35.34
6433;BME280;3249;42.690;23.260;2023-03-20T11:13:22;94415.56;;;16.49;35.34
6433;BME280;3249;42.690;23.260;2023-03-20T11:15:55;94412.47;;;16.52;35.33
6433;BME280;3249;42.690;23.260;2023-03-20T11:18:26;94408.59;;;16.54;34.98
6433;BME280;3249;42.690;23.260;2023-03-20T11:21:01;94403.00;;;16.67;34.94
6433;BME280;3249;42.690;23.260;2023-03-20T11:23:33;94403.75;;;16.68;34.86
6433;BME280;3249;42.690;23.260;2023-03-20T11:26:04;94402.06;;;16.83;33.66
6433;BME280;3249;42.690;23.260;2023-03-20T11:28:40;94403.41;;;16.96;33.71
6433;BME280;3249;42.690;23.260;2023-03-20T11:31:19;94388.38;;;17.03;33.81
6433;BME280;3249;42.690;23.260;2023-03-20T11:33:51;94390.50;;;17.16;33.40
6433;BME280;3249;42.690;23.260;2023-03-20T11:36:24;94387.06;;;17.00;32.95
6433;BME280;3249;42.690;23.260;2023-03-20T11:39:04;94377.72;;;17.09;32.11
6433;BME280;3249;42.690;23.260;2023-03-20T11:41:45;94372.38;;;16.79;31.72
6433;BME280;3249;42.690;23.260;2023-03-20T11:44:28;94372.19;;;16.96;31.81
6433;BME280;3249;42.690;23.260;2023-03-20T11:47:02;94361.88;;;17.11;32.40
6433;BME280;3249;42.690;23.260;2023-03-20T11:49:44;94356.34;;;16.97;31.83
6433;BME280;3249;42.690;23.260;2023-03-20T11:52:19;94359.38;;;17.36;30.56
6433;BME280;3249;42.690;23.260;2023-03-20T11:54:52;94356.59;;;17.57;30.55
6433;BME280;3249;42.690;23.260;2023-03-20T11:57:30;94349.28;;;17.49;29.91
6433;BME280;3249;42.690;23.260;2023-03-20T12:00:17;94351.19;;;17.69;29.90
6433;BME280;3249;42.690;23.260;2023-03-20T12:02:48;94328.50;;;17.54;30.54
6433;BME280;3249;42.690;23.260;2023-03-20T12:05:22;94340.97;;;17.57;30.87
6433;BME280;3249;42.690;23.260;2023-03-20T12:08:00;94338.63;;;17.51;30.61
6433;BME280;3249;42.690;23.260;2023-03-20T12:10:34;94337.31;;;17.53;30.49
6433;BME280;3249;42.690;23.260;2023-03-20T12:13:12;94326.94;;;17.73;29.52
6433;BME280;3249;42.690;23.260;2023-03-20T12:15:54;94323.06;;;17.81;28.89
6433;BME280;3249;42.690;23.260;2023-03-20T12:18:29;94330.13;;;17.95;28.97
6433;BME280;3249;42.690;23.260;2023-03-20T12:21:07;94332.47;;;18.17;28.52
6433;BME280;3249;42.690;23.260;2023-03-20T12:23:41;94327.50;;;17.90;27.86
6433;BME280;3249;42.690;23.260;2023-03-20T12:26:13;94331.66;;;17.81;28.37
6433;BME280;3249;42.690;23.260;2023-03-20T12:28:50;94302.97;;;17.51;28.30
6433;BME280;3249;42.690;23.260;2023-03-20T12:31:31;94331.16;;;17.99;27.83
6433;BME280;3249;42.690;23.260;2023-03-20T12:34:24;94323.34;;;18.09;26.70
6433;BME280;3249;42.690;23.260;2023-03-20T12:36:56;94291.81;;;18.06;26.88
6433;BME280;3249;42.690;23.260;2023-03-20T12:39:41;94265.25;;;18.14;27.08
6433;BME280;3249;42.690;23.260;2023-03-20T12:42:19;94312.16;;;18.34;25.99
6433;BME280;3249;42.690;23.260;2023-03-20T12:44:54;94313.69;;;18.55;24.88
6433;BME280;3249;42.690;23.260;2023-03-20T12:47:44;94294.94;;;18.33;24.91
6433;BME280;3249;42.690;23.260;2023-03-20T12:50:22;94306.66;;;18.41;23.90
6433;BME280;3249;42.690;23.260;2023-03-20T12:53:04;94303.53;;;18.49;23.73
6433;BME280;3249;42.690;23.260;2023-03-20T12:55:44;94287.91;;;18.39;23.43
6433;BME280;3249;42.690;23.260;2023-03-20T12:58:23;94295.22;;;18.47;23.71
6433;BME280;3249;42.690;23.260;2023-03-20T13:01:01;94294.09;;;18.73;23.91
6433;BME280;3249;42.690;23.260;2023-03-20T13:03:47;94276.84;;;18.87;23.97
6433;BME280;3249;42.690;23.260;2023-03-20T13:06:26;94279.91;;;18.99;23.25
6433;BME280;3249;42.690;23.260;2023-03-20T13:09:30;94271.41;;;18.63;23.13
6433;BME280;3249;42.690;23.260;2023-03-20T13:12:06;94277.84;;;18.96;22.60
6433;BME280;3249;42.690;23.260;2023-03-20T13:14:43;94273.06;;;19.13;23.11
6433;BME280;3249;42.690;23.260;2023-03-20T13:17:20;94281.44;;;19.05;22.53
6433;BME280;3249;42.690;23.260;2023-03-20T13:20:15;94266.91;;;18.94;22.78
6433;BME280;3249;42.690;23.260;2023-03-20T13:22:58;94260.53;;;19.15;23.18
6433;BME280;3249;42.690;23.260;2023-03-20T13:25:40;94266.31;;;19.07;22.91
6433;BME280;3249;42.690;23.260;2023-03-20T13:28:19;94222.16;;;18.62;22.30
6433;BME280;3249;42.690;23.260;2023-03-20T13:30:56;94248.41;;;18.85;22.37
6433;BME280;3249;42.690;23.260;2023-03-20T13:33:36;94255.91;;;18.97;21.84
6433;BME280;3249;42.690;23.260;2023-03-20T13:36:21;94249.69;;;18.88;22.13
6433;BME280;3249;42.690;23.260;2023-03-20T13:38:58;94251.72;;;19.01;21.73
6433;BME280;3249;42.690;23.260;2023-03-20T13:41:29;94243.59;;;19.12;21.63
6433;BME280;3249;42.690;23.260;2023-03-20T13:44:01;94241.25;;;19.11;21.73
6433;BME280;3249;42.690;23.260;2023-03-20T13:46:35;94244.34;;;19.18;21.05
6433;BME280;3249;42.690;23.260;2023-03-20T13:49:13;94252.19;;;19.18;22.10
6433;BME280;3249;42.690;23.260;2023-03-20T13:51:48;94232.84;;;19.19;21.14
6433;BME280;3249;42.690;23.260;2023-03-20T13:54:51;94238.56;;;19.21;20.84
6433;BME280;3249;42.690;23.260;2023-03-20T13:57:34;94242.66;;;19.42;20.57
6433;BME280;3249;42.690;23.260;2023-03-20T14:00:17;94241.13;;;19.36;20.08
6433;BME280;3249;42.690;23.260;2023-03-20T14:03:06;94233.19;;;19.51;19.82
6433;BME280;3249;42.690;23.260;2023-03-20T14:05:42;94234.59;;;19.72;18.82
6433;BME280;3249;42.690;23.260;2023-03-20T14:08:35;94227.44;;;19.54;19.49